Time;durP1;ratioP1;P1;durP2;ratioP2;P2;SDS_P1;SDS_P2;PMS_P1;PMS_P2;Temp;Humidity;BMP_temperature;BMP_pressure;BME280_temperature;BME280_humidity;BME280_pressure;Samples;Min_cycle;Max_cycle;Signal;HPM_P1;HPM_P2
2022/01/24 10:19:36;;;;;;;16.32;8.63;;;;;;;-3.61;77.01;101131.55;1766536;80;21144;-44
2022/01/24 10:31:05;;;;;;;24.55;11.25;;;;;;;-3.53;77.66;101136.84;1787956;78;21092;-46
2022/01/24 10:42:52;;;;;;;20.82;10.85;;;;;;;-3.14;76.97;101124.97;1726446;81;21580;-39
2022/01/24 10:45:16;;;;;;;19.70;9.35;;;;;;;-3.00;76.87;101111.44;1688616;83;22143;-38
2022/01/24 10:47:47;;;;;;;;;;;;;;;-3.01;76.43;101105.44;1731121;81;21626;-37
2022/01/24 10:50:33;;;;;;;16.82;9.80;;;;;;;-3.05;76.45;101117.92;1721979;81;20152;-46
2022/01/24 10:53:16;;;;;;;14.25;8.18;;;;;;;-3.09;76.74;101123.61;1726727;81;20977;-37
2022/01/24 10:55:47;;;;;;;17.17;8.80;;;;;;;-3.16;76.99;101126.16;1729551;81;21037;-37
2022/01/24 10:58:18;;;;;;;17.55;10.03;;;;;;;-3.28;77.07;101115.97;1722958;81;21141;-40
2022/01/24 11:00:49;;;;;;;17.30;9.75;;;;;;;-3.36;78.06;101109.45;1737138;81;21025;-36
2022/01/24 11:03:19;;;;;;;17.48;8.83;;;;;;;-3.42;78.40;101107.77;1730885;81;21002;-38
2022/01/24 11:05:57;;;;;;;20.05;10.98;;;;;;;-3.45;78.86;101110.48;1733540;81;21506;-40
2022/01/24 11:08:40;;;;;;;17.17;9.05;;;;;;;-3.48;79.09;101113.70;1766820;78;21002;-38
2022/01/24 11:11:33;;;;;;;18.15;9.33;;;;;;;-3.50;79.36;101111.45;1785120;78;21041;-45
2022/01/24 11:15:11;;;;;;;15.55;8.30;;;;;;;-3.56;79.39;101104.63;1772661;79;21499;-39
2022/01/24 11:18:40;;;;;;;17.45;10.05;;;;;;;-3.61;80.23;101114.93;1791095;78;21016;-38
2022/01/24 11:26:05;;;;;;;17.07;9.13;;;;;;;-3.54;80.30;101100.49;1786089;78;21052;-46
2022/01/24 11:29:41;;;;;;;19.60;10.05;;;;;;;-3.55;80.88;101105.12;1782616;78;20995;-46
2022/01/24 11:33:19;;;;;;;18.77;10.30;;;;;;;-3.49;80.90;101105.54;1724590;81;21089;-46
2022/01/24 11:36:40;;;;;;;18.35;9.83;;;;;;;-3.43;81.08;101092.28;1727445;82;21057;-36
2022/01/24 11:39:26;;;;;;;16.07;9.80;;;;;;;-3.35;80.78;101097.16;1722823;81;21464;-37
2022/01/24 11:41:55;;;;;;;19.12;10.80;;;;;;;-3.31;80.34;101088.88;1710945;82;20978;-41
2022/01/24 11:44:23;;;;;;;23.30;13.18;;;;;;;-3.31;80.11;101096.55;1727540;81;21045;-45
2022/01/24 11:46:55;;;;;;;23.05;12.03;;;;;;;-3.34;80.20;101096.36;1726603;81;22014;-47
2022/01/24 11:49:34;;;;;;;22.40;11.38;;;;;;;-3.30;80.58;101097.47;1728749;81;21797;-47
2022/01/24 11:52:18;;;;;;;23.25;12.47;;;;;;;-3.29;80.32;101086.45;1730433;81;21500;-49
2022/01/24 11:55:16;;;;;;;18.10;11.00;;;;;;;-3.26;80.84;101111.83;1733314;80;21088;-45
2022/01/24 11:57:50;;;;;;;18.87;11.25;;;;;;;-3.18;80.61;101098.69;1725701;81;21471;-37
2022/01/24 12:00:28;;;;;;;15.20;9.45;;;;;;;-3.11;80.65;101111.11;1754658;80;21079;-38
2022/01/24 12:03:03;;;;;;;18.27;10.50;;;;;;;-3.06;80.62;101107.19;1754701;80;20985;-47
2022/01/24 12:05:46;;;;;;;21.73;11.60;;;;;;;-3.00;80.73;101105.92;1751146;80;21108;-46
2022/01/24 12:08:28;;;;;;;20.08;9.83;;;;;;;-2.96;80.08;101098.95;1752861;80;20969;-46
2022/01/24 12:10:58;;;;;;;19.87;11.43;;;;;;;-2.97;79.74;101109.07;1737297;81;21606;-47
2022/01/24 12:13:36;;;;;;;16.07;10.13;;;;;;;-3.02;79.80;101112.98;1754118;80;21053;-37
2022/01/24 12:16:04;;;;;;;17.20;11.08;;;;;;;-3.08;79.69;101101.94;1757899;80;21100;-38
2022/01/24 12:18:37;;;;;;;18.07;10.90;;;;;;;-3.16;80.40;101115.03;1753679;80;21020;-37
2022/01/24 12:21:22;;;;;;;16.70;9.40;;;;;;;-3.22;80.71;101102.31;1723149;82;21083;-48
2022/01/24 12:23:58;;;;;;;18.62;9.65;;;;;;;-3.25;81.20;101113.64;1787623;78;21000;-46
2022/01/24 12:26:29;;;;;;;20.12;10.03;;;;;;;-3.27;81.74;101115.19;1794261;78;21134;-46
2022/01/24 12:29:28;;;;;;;24.55;10.68;;;;;;;-3.30;81.62;101107.70;1786687;78;21008;-48
2022/01/24 12:32:03;;;;;;;16.35;9.75;;;;;;;-3.36;81.72;101111.09;1785803;78;21036;-37
2022/01/24 12:34:41;;;;;;;17.87;9.95;;;;;;;-3.39;82.15;101114.35;1780847;78;20965;-38
2022/01/24 12:37:12;;;;;;;19.25;9.45;;;;;;;-3.40;82.15;101110.42;1787886;78;21392;-37
2022/01/24 12:39:47;;;;;;;24.50;10.82;;;;;;;-3.43;82.32;101112.35;1788134;79;21613;-37
2022/01/24 12:42:20;;;;;;;17.62;10.43;;;;;;;-3.45;82.28;101110.48;1789798;78;21004;-37
2022/01/24 12:47:26;;;;;;;20.90;11.60;;;;;;;-3.49;82.73;101119.22;1793387;79;20953;-46
2022/01/24 12:49:55;;;;;;;18.10;10.28;;;;;;;-3.51;82.78;101121.19;1797850;79;21556;-46
2022/01/24 12:52:27;;;;;;;19.30;10.00;;;;;;;-3.53;82.86;101126.20;1787570;78;21001;-45
2022/01/24 12:54:58;;;;;;;22.67;11.12;;;;;;;-3.55;82.70;101132.86;1737790;81;21401;-48
2022/01/24 12:57:30;;;;;;;22.37;11.95;;;;;;;-3.56;83.04;101128.53;1734510;81;21626;-39
2022/01/24 13:00:07;;;;;;;22.10;11.40;;;;;;;-3.57;83.36;101126.77;1740044;81;21403;-47
2022/01/24 13:02:41;;;;;;;20.25;11.53;;;;;;;-3.55;83.06;101134.14;1711409;82;21575;-49
2022/01/24 13:05:20;;;;;;;18.62;10.13;;;;;;;-3.54;83.17;101133.75;1746251;78;21038;-48
2022/01/24 13:07:51;;;;;;;17.85;10.43;;;;;;;-3.57;83.27;101133.16;1787233;79;21068;-41
2022/01/24 13:10:22;;;;;;;17.65;11.53;;;;;;;-3.58;83.50;101133.06;1790446;78;21032;-40
2022/01/24 13:13:07;;;;;;;21.30;12.10;;;;;;;-3.57;83.85;101143.79;1787738;79;20972;-39
2022/01/24 13:21:22;;;;;;;21.27;11.80;;;;;;;-3.63;84.17;101140.41;1781384;79;21432;-39
2022/01/24 13:23:57;;;;;;;19.55;11.78;;;;;;;-3.68;83.94;101141.75;1788251;79;20941;-40
2022/01/24 13:26:21;;;;;;;20.12;10.70;;;;;;;-3.68;84.28;101138.31;1788025;78;21627;-39
2022/01/24 13:28:48;;;;;;;24.77;13.22;;;;;;;-3.71;84.12;101140.28;1785879;78;21591;-40
2022/01/24 13:31:15;;;;;;;24.85;12.78;;;;;;;-3.71;84.17;101136.45;1801370;78;21068;-39
2022/01/24 13:33:45;;;;;;;20.12;11.08;;;;;;;-3.72;84.11;101137.59;1775514;80;21447;-40
2022/01/24 13:36:11;;;;;;;25.88;12.73;;;;;;;-3.75;84.08;101132.77;1785486;78;21019;-40
2022/01/24 13:38:44;;;;;;;22.02;13.43;;;;;;;-3.78;83.79;101139.33;1788550;79;21408;-38
2022/01/24 13:41:14;;;;;;;25.43;13.15;;;;;;;-3.82;83.96;101142.08;1775684;78;21058;-39
2022/01/24 13:44:04;;;;;;;22.07;13.45;;;;;;;-3.82;83.88;101145.91;1792454;79;20984;-38
2022/01/24 13:46:35;;;;;;;23.57;11.95;;;;;;;-3.83;83.96;101145.78;1792101;79;21042;-38
2022/01/24 13:49:08;;;;;;;24.32;13.75;;;;;;;-3.84;83.61;101151.29;1791863;78;20995;-38
2022/01/24 13:51:43;;;;;;;22.87;12.33;;;;;;;-3.86;83.91;101155.81;1789635;80;21544;-39
2022/01/24 13:54:18;;;;;;;24.47;13.88;;;;;;;-3.88;84.19;101154.43;1791267;79;20974;-40
